Time;durP1;ratioP1;P1;durP2;ratioP2;P2;SDS_P1;SDS_P2;PMS_P1;PMS_P2;Temp;Humidity;BMP_temperature;BMP_pressure;BME280_temperature;BME280_humidity;BME280_pressure;Samples;Min_cycle;Max_cycle;Signal;HPM_P1;HPM_P2
2022/05/07 00:01:54;;;;;;;7.78;5.78;;;;;;;15.36;89.08;100837.88;5589809;31;32791;-67
2022/05/07 00:04:57;;;;;;;14.55;5.43;;;;;;;15.19;89.84;100842.62;5590103;31;34523;-67
2022/05/07 00:07:59;;;;;;;8.30;6.10;;;;;;;15.25;90.11;100833.03;5589776;31;32793;-67
2022/05/07 00:11:02;;;;;;;8.48;5.75;;;;;;;15.12;91.28;100837.19;5589373;31;32727;-67
2022/05/07 00:14:05;;;;;;;11.20;6.07;;;;;;;15.05;92.17;100830.13;5590405;31;34297;-67
2022/05/07 00:20:30;;;;;;;10.10;6.87;;;;;;;15.01;93.00;100834.97;5590450;31;34248;-66
2022/05/07 00:23:33;;;;;;;7.90;6.20;;;;;;;15.09;92.43;100834.06;5589671;31;33229;-67
2022/05/07 00:26:35;;;;;;;7.95;6.25;;;;;;;15.16;91.84;100826.94;5576327;31;34386;-66
2022/05/07 00:29:38;;;;;;;9.13;6.03;;;;;;;15.05;92.15;100832.78;5589325;31;33361;-67
2022/05/07 00:32:40;;;;;;;8.75;6.03;;;;;;;15.04;92.88;100831.97;5590275;31;34302;-66
2022/05/07 00:35:43;;;;;;;9.32;6.22;;;;;;;15.03;91.91;100824.13;5589179;31;34392;-67
2022/05/07 00:38:46;;;;;;;9.27;6.40;;;;;;;15.09;91.16;100829.56;5590289;31;34223;-66
2022/05/07 00:41:49;;;;;;;11.10;6.37;;;;;;;15.11;91.33;100832.03;5590185;31;34187;-67
2022/05/07 00:44:51;;;;;;;8.85;6.07;;;;;;;15.19;90.51;100821.25;5590016;31;34294;-66
2022/05/07 00:47:54;;;;;;;8.65;6.00;;;;;;;15.07;90.61;100834.25;5590256;31;34321;-67
2022/05/07 00:54:23;;;;;;;9.63;6.55;;;;;;;14.90;91.04;100819.44;5589295;31;32763;-67
2022/05/07 00:57:25;;;;;;;8.45;6.03;;;;;;;14.91;90.33;100822.94;5589345;31;32715;-67
2022/05/07 01:00:28;;;;;;;8.15;5.68;;;;;;;14.94;90.87;100817.22;5588387;31;33872;-67
2022/05/07 01:03:31;;;;;;;11.23;5.75;;;;;;;14.92;90.86;100820.06;5590010;31;35391;-66
2022/05/07 01:06:35;;;;;;;7.18;5.53;;;;;;;14.88;90.55;100810.78;5589981;31;34898;-67
2022/05/07 01:09:38;;;;;;;7.12;4.90;;;;;;;14.97;87.44;100817.66;5590394;31;34626;-67
2022/05/07 01:12:42;;;;;;;7.07;4.70;;;;;;;15.07;87.62;100828.06;5589883;31;34223;-67
2022/05/07 01:15:46;;;;;;;7.12;4.43;;;;;;;15.36;81.82;100827.19;5589827;31;34217;-67
2022/05/07 01:18:50;;;;;;;5.35;4.12;;;;;;;15.32;81.26;100824.06;5588948;31;33399;-66
2022/05/07 01:21:53;;;;;;;5.30;4.28;;;;;;;15.28;82.25;100816.63;5588567;31;34652;-67
2022/05/07 01:24:58;;;;;;;8.40;4.45;;;;;;;15.25;82.37;100817.00;5588892;31;33537;-67
2022/05/07 01:28:00;;;;;;;5.32;3.87;;;;;;;15.29;82.95;100828.97;5589818;31;34655;-67
2022/05/07 01:31:05;;;;;;;6.47;4.22;;;;;;;15.30;81.08;100823.41;5590116;31;34556;-67
2022/05/07 01:34:07;;;;;;;6.53;4.28;;;;;;;15.28;80.38;100813.94;5589661;31;34287;-67
2022/05/07 01:37:11;;;;;;;7.53;4.62;;;;;;;15.23;81.72;100815.34;5588804;31;34064;-67
2022/05/07 01:40:13;;;;;;;8.15;4.25;;;;;;;15.31;82.29;100821.56;5589661;31;34262;-67
2022/05/07 01:43:17;;;;;;;6.25;4.00;;;;;;;15.33;80.74;100822.22;5590000;31;34159;-66
2022/05/07 01:49:43;;;;;;;5.45;3.37;;;;;;;15.40;81.06;100818.59;5590171;31;34245;-66
2022/05/07 01:52:46;;;;;;;4.70;2.83;;;;;;;15.41;nan;100830.13;5588976;31;32976;-66
2022/05/07 01:55:49;;;;;;;5.43;2.62;;;;;;;15.37;76.73;100815.50;5589611;31;34426;-66
2022/05/07 01:58:51;;;;;;;3.03;2.45;;;;;;;15.38;75.61;100814.47;5589494;31;34353;-66
2022/05/07 02:01:54;;;;;;;4.45;2.87;;;;;;;15.36;74.44;100816.50;5589751;31;34912;-65
2022/05/07 02:04:58;;;;;;;3.35;2.80;;;;;;;15.30;75.22;100811.94;5589485;31;35404;-66
2022/05/07 02:08:02;;;;;;;3.85;2.78;;;;;;;15.35;73.62;100807.66;5589870;31;34630;-66
2022/05/07 02:11:05;;;;;;;6.25;2.97;;;;;;;15.38;73.81;100807.28;5588752;31;33697;-67
2022/05/07 02:14:07;;;;;;;5.37;2.70;;;;;;;15.46;72.65;100806.34;5588001;31;35550;-66
2022/05/07 02:17:10;;;;;;;6.05;2.70;;;;;;;15.34;74.63;100805.19;5588558;31;32519;-67
2022/05/07 02:20:13;;;;;;;9.30;3.22;;;;;;;15.28;75.07;100803.25;5588621;31;34219;-66
2022/05/07 02:23:17;;;;;;;4.87;2.70;;;;;;;15.16;76.44;100806.41;5589425;31;34795;-67
2022/05/07 02:26:20;;;;;;;5.55;3.00;;;;;;;15.10;75.35;100815.16;5589211;31;34221;-66
2022/05/07 02:29:23;;;;;;;3.45;2.70;;;;;;;15.06;75.42;100811.22;5589196;31;34106;-67
2022/05/07 02:32:26;;;;;;;6.72;2.70;;;;;;;15.05;75.32;100814.09;5589548;31;34224;-66
2022/05/07 02:35:29;;;;;;;3.28;2.62;;;;;;;14.96;76.53;100817.88;5589158;31;34851;-67
2022/05/07 02:38:31;;;;;;;4.10;2.95;;;;;;;14.89;76.87;100806.25;5588506;31;33571;-67
2022/05/07 02:44:56;;;;;;;5.40;2.75;;;;;;;14.86;77.09;100810.13;5588949;31;34946;-66
2022/05/07 02:47:59;;;;;;;7.37;2.70;;;;;;;14.88;76.97;100809.94;5588860;31;34354;-66
2022/05/07 02:51:03;;;;;;;3.92;3.12;;;;;;;14.90;77.14;100814.09;5587995;31;32961;-66
2022/05/07 02:54:06;;;;;;;5.90;2.80;;;;;;;14.92;77.46;100813.88;5588731;31;34361;-67
2022/05/07 02:57:08;;;;;;;4.90;2.65;;;;;;;14.96;77.60;100813.34;5588757;31;35607;-67
2022/05/07 03:00:13;;;;;;;3.55;2.72;;;;;;;15.06;76.67;100818.38;5588598;31;34901;-66
2022/05/07 03:03:15;;;;;;;5.60;2.97;;;;;;;14.94;77.70;100812.72;5588612;31;33400;-67
2022/05/07 03:06:25;;;;;;;5.03;3.30;;;;;;;14.87;77.50;100813.63;5575789;31;32726;-67
2022/05/07 03:09:27;;;;;;;5.87;3.05;;;;;;;14.86;77.61;100812.81;5588405;31;34363;-67
2022/05/07 03:12:30;;;;;;;4.40;2.90;;;;;;;14.84;77.62;100814.81;5588360;31;34914;-67
2022/05/07 03:15:33;;;;;;;3.67;3.00;;;;;;;14.79;78.54;100809.22;5588626;31;34216;-66
2022/05/07 03:18:39;;;;;;;5.22;3.10;;;;;;;14.77;79.37;100817.41;5588420;31;34416;-67
2022/05/07 03:21:42;;;;;;;4.97;3.10;;;;;;;14.77;79.24;100811.22;5587320;31;33476;-66
2022/05/07 03:24:46;;;;;;;6.40;3.50;;;;;;;14.79;78.97;100812.72;5589896;31;34191;-66
2022/05/07 03:27:48;;;;;;;6.50;3.60;;;;;;;14.79;78.02;100814.56;5590315;31;33502;-66
2022/05/07 03:30:51;;;;;;;4.03;3.20;;;;;;;14.96;77.85;100808.00;5590875;31;34972;-66
2022/05/07 03:33:54;;;;;;;8.02;3.65;;;;;;;14.91;77.99;100815.72;5589752;31;33924;-66
2022/05/07 03:36:57;;;;;;;4.95;3.55;;;;;;;14.85;78.29;100816.50;5589849;31;33800;-66
2022/05/07 03:40:00;;;;;;;6.10;3.58;;;;;;;14.91;78.87;100815.72;5591226;31;34173;-66
2022/05/07 03:43:05;;;;;;;6.03;3.55;;;;;;;14.84;80.39;100820.16;5591195;31;34109;-66
2022/05/07 03:46:11;;;;;;;5.00;3.67;;;;;;;14.87;79.26;100822.47;5590700;31;34874;-66
2022/05/07 03:49:19;;;;;;;8.95;4.12;;;;;;;14.95;78.70;100821.56;5590824;31;34820;-66
2022/05/07 03:55:44;;;;;;;5.75;3.83;;;;;;;14.94;79.37;100823.41;5590644;31;34194;-66
2022/05/07 03:58:48;;;;;;;5.62;3.87;;;;;;;14.98;79.30;100821.16;5589543;31;33364;-66
2022/05/07 04:01:51;;;;;;;4.18;3.60;;;;;;;14.98;78.57;100831.84;5589743;31;33097;-66
2022/05/07 04:04:58;;;;;;;6.57;3.97;;;;;;;15.15;77.75;100834.13;5590798;31;34822;-66
2022/05/07 04:08:01;;;;;;;6.70;3.47;;;;;;;15.11;78.22;100837.37;5590542;31;34921;-67
2022/05/07 04:11:04;;;;;;;7.90;3.53;;;;;;;15.09;78.82;100828.72;5589656;31;33724;-66
2022/05/07 04:14:06;;;;;;;5.43;3.47;;;;;;;15.08;77.99;100841.25;5589689;31;34809;-66
2022/05/07 04:17:09;;;;;;;6.57;3.87;;;;;;;15.11;78.36;100837.37;5590356;31;34929;-67
2022/05/07 04:20:12;;;;;;;4.95;3.67;;;;;;;15.18;77.97;100838.28;5589871;31;32657;-67
2022/05/07 04:23:15;;;;;;;4.37;3.40;;;;;;;15.30;77.73;100841.34;5589195;31;33252;-67
2022/05/07 04:26:18;;;;;;;5.87;3.78;;;;;;;15.38;77.83;100841.22;5589624;31;32568;-66
2022/05/07 04:29:21;;;;;;;5.32;3.50;;;;;;;15.37;77.20;100842.22;5589537;31;34258;-67
2022/05/07 04:32:26;;;;;;;5.18;4.07;;;;;;;15.43;77.48;100847.66;5590046;31;34834;-67
2022/05/07 04:35:30;;;;;;;8.05;3.90;;;;;;;15.39;77.06;100849.06;5588389;31;32711;-66
2022/05/07 04:38:35;;;;;;;5.70;3.95;;;;;;;15.41;77.37;100851.53;5589586;31;33461;-67
2022/05/07 04:41:38;;;;;;;6.85;4.05;;;;;;;15.46;77.54;100854.47;5590217;31;34701;-67
2022/05/07 04:44:41;;;;;;;4.65;3.95;;;;;;;15.51;76.81;100854.75;5590286;31;34881;-67
2022/05/07 04:47:47;;;;;;;6.65;4.00;;;;;;;15.67;76.94;100854.53;5589049;31;32673;-67
2022/05/07 04:50:50;;;;;;;5.28;3.78;;;;;;;15.61;76.65;100853.44;5590183;31;34185;-66
2022/05/07 04:53:53;;;;;;;4.68;3.83;;;;;;;15.55;76.49;100864.06;5589360;31;32661;-67
2022/05/07 04:56:57;;;;;;;6.35;3.92;;;;;;;15.63;76.42;100854.09;5590069;31;34147;-66
2022/05/07 05:00:05;;;;;;;6.18;4.40;;;;;;;15.72;76.30;100857.47;5590449;31;34302;-66
2022/05/07 05:03:10;;;;;;;9.63;4.43;;;;;;;15.74;75.28;100851.91;5590337;31;34189;-66
2022/05/07 05:06:14;;;;;;;7.07;4.20;;;;;;;15.81;75.29;100856.34;5588985;31;33246;-66
2022/05/07 05:09:18;;;;;;;5.47;3.90;;;;;;;15.95;75.01;100855.44;5589256;31;33094;-66
2022/05/07 05:12:22;;;;;;;5.75;4.03;;;;;;;15.91;75.23;100859.53;5575950;31;32882;-67
2022/05/07 05:15:25;;;;;;;5.47;4.00;;;;;;;16.14;75.03;100861.16;5590171;31;33595;-66
2022/05/07 05:18:28;;;;;;;8.32;4.75;;;;;;;16.15;73.80;100857.47;5589941;31;35374;-66
2022/05/07 05:21:31;;;;;;;4.93;3.60;;;;;;;16.20;73.67;100861.25;5589206;31;33441;-66
2022/05/07 05:24:35;;;;;;;5.28;4.25;;;;;;;16.36;73.11;100860.94;5589818;31;35622;-66
2022/05/07 05:27:38;;;;;;;6.20;4.10;;;;;;;16.25;72.51;100866.84;5588725;31;32854;-66
2022/05/07 05:30:42;;;;;;;5.37;3.87;;;;;;;16.37;72.65;100862.62;5589114;31;33307;-66
2022/05/07 05:33:45;;;;;;;5.28;4.10;;;;;;;16.59;72.48;100867.97;5589665;31;34094;-66
2022/05/07 05:36:49;;;;;;;5.78;4.00;;;;;;;16.56;72.87;100871.81;5589034;31;33646;-66
2022/05/07 05:39:52;;;;;;;8.80;4.15;;;;;;;16.75;72.77;100873.03;5589026;31;33382;-67
2022/05/07 05:42:56;;;;;;;6.78;4.03;;;;;;;16.84;72.17;100869.19;5588529;31;32680;-66
2022/05/07 05:46:00;;;;;;;5.78;3.67;;;;;;;16.78;72.16;100868.09;5588909;31;32855;-67
2022/05/07 05:49:03;;;;;;;4.93;3.60;;;;;;;16.77;71.83;100870.97;5588675;31;32718;-67
2022/05/07 05:52:07;;;;;;;5.57;4.00;;;;;;;16.75;73.25;100875.72;5589387;31;34230;-66
2022/05/07 05:55:11;;;;;;;7.55;4.10;;;;;;;16.85;71.70;100870.81;5589229;31;34663;-67
2022/05/07 05:58:14;;;;;;;5.03;4.00;;;;;;;16.97;71.95;100881.81;5588850;31;32917;-66
2022/05/07 06:01:17;;;;;;;8.88;3.85;;;;;;;17.37;70.75;100878.34;5589751;31;34217;-67
2022/05/07 06:04:21;;;;;;;7.03;4.20;;;;;;;17.50;69.53;100877.53;5588576;31;34178;-66
2022/05/07 06:07:27;;;;;;;4.93;3.78;;;;;;;17.02;71.78;100880.22;5588244;31;33657;-66
2022/05/07 06:10:30;;;;;;;4.70;4.05;;;;;;;17.21;70.61;100875.97;5575893;31;33838;-67
2022/05/07 06:13:33;;;;;;;5.95;4.15;;;;;;;17.45;69.96;100880.84;5589401;31;34349;-66
2022/05/07 06:16:36;;;;;;;5.22;4.05;;;;;;;17.36;70.59;100880.19;5588992;31;34834;-67
2022/05/07 06:19:40;;;;;;;5.72;4.28;;;;;;;17.84;68.78;100884.69;5588343;31;32739;-66
2022/05/07 06:22:42;;;;;;;6.82;4.30;;;;;;;17.83;68.20;100891.09;5588995;31;34240;-66
2022/05/07 06:29:08;;;;;;;7.05;3.40;;;;;;;18.14;66.69;100894.06;5589165;31;34884;-66
2022/05/07 06:32:12;;;;;;;5.05;3.87;;;;;;;18.14;66.23;100896.75;5588440;31;33533;-66
2022/05/07 06:35:15;;;;;;;5.65;3.60;;;;;;;18.10;66.37;100896.34;5588907;31;34257;-66
2022/05/07 06:38:19;;;;;;;4.75;3.60;;;;;;;17.58;67.83;100890.78;5587853;31;34544;-66
2022/05/07 06:41:23;;;;;;;7.53;3.90;;;;;;;17.92;66.78;100887.19;5587795;31;33675;-66
2022/05/07 06:44:25;;;;;;;5.05;3.47;;;;;;;18.12;65.75;100893.44;5587512;31;33064;-66
2022/05/07 06:47:28;;;;;;;5.10;3.40;;;;;;;18.14;66.16;100886.84;5587955;31;33676;-66
2022/05/07 06:50:31;;;;;;;4.97;3.35;;;;;;;18.10;66.31;100892.81;5588616;31;34275;-66
2022/05/07 06:53:37;;;;;;;6.22;3.00;;;;;;;18.33;65.06;100882.50;5588022;31;34179;-66
2022/05/07 06:56:40;;;;;;;5.25;3.28;;;;;;;18.61;64.72;100885.00;5587696;31;33120;-66
2022/05/07 06:59:46;;;;;;;4.93;3.87;;;;;;;18.65;64.50;100889.75;5591545;31;34816;-66
2022/05/07 07:02:49;;;;;;;5.45;3.60;;;;;;;18.00;66.15;100885.16;5595386;31;34270;-66
2022/05/07 07:05:53;;;;;;;4.37;3.60;;;;;;;18.01;66.99;100888.69;5594104;31;32987;-66
2022/05/07 07:09:05;;;;;;;5.85;4.05;;;;;;;18.23;67.02;100880.25;5594236;31;34007;-66
2022/05/07 07:12:10;;;;;;;6.53;3.80;;;;;;;18.77;64.51;100879.22;5594912;31;34226;-66
2022/05/07 07:15:12;;;;;;;4.82;3.65;;;;;;;18.57;64.91;100881.09;5594285;31;33519;-66
2022/05/07 07:18:15;;;;;;;9.13;4.00;;;;;;;18.70;65.02;100878.38;5594347;31;32562;-66
2022/05/07 07:21:18;;;;;;;7.05;3.80;;;;;;;18.84;64.51;100879.19;5580895;31;32803;-66
2022/05/07 07:24:21;;;;;;;6.93;3.60;;;;;;;18.94;63.83;100880.41;5595031;31;34895;-66
2022/05/07 07:27:24;;;;;;;5.20;3.53;;;;;;;19.22;63.03;100887.41;5594170;31;32582;-66
2022/05/07 07:30:27;;;;;;;5.53;3.65;;;;;;;19.25;62.47;100897.72;5593856;31;32776;-66
2022/05/07 07:33:29;;;;;;;6.03;3.20;;;;;;;19.23;63.06;100889.03;5580619;31;33312;-66
2022/05/07 07:36:32;;;;;;;3.87;3.00;;;;;;;19.56;61.61;100891.66;5593824;31;33550;-66
2022/05/07 07:39:37;;;;;;;3.67;3.25;;;;;;;20.08;59.84;100895.91;5594252;31;34214;-66
2022/05/07 07:42:43;;;;;;;5.80;3.62;;;;;;;20.14;59.69;100895.03;5593278;31;33009;-66
2022/05/07 07:49:10;;;;;;;4.40;3.58;;;;;;;20.74;57.67;100899.75;5593590;31;33308;-66
2022/05/07 07:52:13;;;;;;;4.85;3.25;;;;;;;21.86;54.46;100894.97;5594098;31;34270;-66
2022/05/07 07:55:16;;;;;;;4.53;3.30;;;;;;;21.48;54.52;100893.38;5593308;31;32773;-66
2022/05/07 07:58:18;;;;;;;4.60;3.28;;;;;;;21.24;55.59;100888.91;5593240;31;32589;-66
2022/05/07 08:01:21;;;;;;;4.10;3.08;;;;;;;21.33;55.17;100892.94;5593303;31;32622;-66
2022/05/07 08:04:25;;;;;;;6.20;3.08;;;;;;;21.90;52.94;100894.28;5593998;31;34810;-66
2022/05/07 08:14:13;;;;;;;6.62;3.50;;;;;;;21.69;53.28;100890.19;5589082;31;32831;-66
2022/05/07 08:17:16;;;;;;;6.78;3.42;;;;;;;20.80;55.58;100879.16;5589402;31;33729;-66
2022/05/07 08:20:19;;;;;;;6.00;3.58;;;;;;;20.43;57.32;100890.91;5589610;31;33087;-66
2022/05/07 08:23:23;;;;;;;4.70;3.72;;;;;;;21.44;54.61;100902.16;5590028;31;34585;-66
2022/05/07 08:26:26;;;;;;;5.87;3.47;;;;;;;21.58;53.99;100892.84;5588744;31;33457;-66
2022/05/07 08:29:28;;;;;;;6.95;3.45;;;;;;;23.23;49.91;100896.47;5589187;31;34540;-67
2022/05/07 08:32:31;;;;;;;6.72;3.87;;;;;;;23.60;48.16;100886.16;5576581;31;33583;-66
2022/05/07 08:35:34;;;;;;;4.18;3.17;;;;;;;22.18;52.28;100893.69;5589610;31;32909;-66
2022/05/07 08:38:37;;;;;;;5.18;3.45;;;;;;;22.57;50.99;100897.63;5590115;31;34327;-66
2022/05/07 08:41:40;;;;;;;4.95;3.50;;;;;;;22.49;51.46;100889.88;5589483;31;33399;-66
2022/05/07 08:44:43;;;;;;;3.95;3.05;;;;;;;23.15;49.33;100900.34;5590100;31;34300;-66
2022/05/07 08:47:46;;;;;;;4.90;3.12;;;;;;;24.94;45.66;100904.22;5588539;31;33431;-67
2022/05/07 08:50:53;;;;;;;4.10;2.92;;;;;;;26.14;41.78;100900.53;5589182;31;32947;-67
2022/05/07 08:53:57;;;;;;;3.85;3.05;;;;;;;24.77;44.62;100902.59;5588956;31;33870;-67
2022/05/07 08:56:59;;;;;;;3.90;2.80;;;;;;;25.75;41.94;100907.22;5589056;31;33670;-67
2022/05/07 09:00:04;;;;;;;4.60;2.97;;;;;;;25.30;42.66;100902.84;5589149;31;33647;-67
2022/05/07 09:03:07;;;;;;;5.18;2.90;;;;;;;25.32;42.84;100899.88;5589006;31;32837;-67
2022/05/07 09:06:21;;;;;;;6.05;3.05;;;;;;;24.38;45.68;100897.09;5589590;31;34710;-67
2022/05/07 09:09:24;;;;;;;5.10;3.20;;;;;;;23.89;47.10;100893.22;5589494;31;34697;-66
2022/05/07 09:12:28;;;;;;;3.97;3.03;;;;;;;23.23;48.04;100900.00;5589679;31;34138;-67
2022/05/07 09:15:31;;;;;;;4.00;2.92;;;;;;;25.03;45.45;100891.88;5588916;31;32574;-67
2022/05/07 09:18:34;;;;;;;5.40;2.83;;;;;;;24.34;45.31;100897.84;5589569;31;34829;-68
2022/05/07 09:21:37;;;;;;;4.62;2.70;;;;;;;25.38;43.24;100890.69;5588391;31;32641;-66
2022/05/07 09:24:40;;;;;;;3.50;2.20;;;;;;;27.14;37.55;100898.88;5589508;31;34594;-68
2022/05/07 09:27:47;;;;;;;4.62;2.90;;;;;;;28.36;35.10;100889.19;5588973;31;32684;-68
2022/05/07 09:30:55;;;;;;;4.70;2.62;;;;;;;29.54;33.83;100896.84;5589499;31;34857;-67
2022/05/07 09:35:47;;;;;;;3.22;2.28;;;;;;;28.01;36.14;100890.75;5589797;31;34320;-66
2022/05/07 09:37:22;;;;;;;5.05;2.60;;;;;;;27.74;35.88;100881.16;5588858;31;33104;-67
2022/05/07 09:40:25;;;;;;;3.90;2.50;;;;;;;26.97;38.18;100884.59;5589515;31;34251;-68
2022/05/07 09:43:29;;;;;;;3.00;2.70;;;;;;;26.85;37.29;100887.53;5588469;31;32684;-66
2022/05/07 09:46:32;;;;;;;3.85;2.30;;;;;;;27.40;36.66;100875.31;5589157;31;34913;-67
2022/05/07 09:49:36;;;;;;;3.83;2.37;;;;;;;26.69;36.39;100869.44;5588574;31;32704;-66
2022/05/07 09:57:30;;;;;;;5.57;2.78;;;;;;;26.15;38.67;100874.16;5589102;31;34257;-66
2022/05/07 09:59:27;;;;;;;3.00;2.35;;;;;;;25.35;40.17;100873.03;5589028;31;34180;-66
2022/05/07 10:03:01;;;;;;;3.28;2.55;;;;;;;24.99;40.19;100860.03;5588674;31;33463;-67
2022/05/07 10:06:34;;;;;;;3.28;2.53;;;;;;;24.07;42.16;100857.75;5589203;31;34396;-66
2022/05/07 10:10:09;;;;;;;5.78;2.70;;;;;;;24.34;42.88;100854.44;5588217;31;33115;-67
2022/05/07 10:13:16;;;;;;;3.65;2.65;;;;;;;24.37;41.77;100856.66;5570652;31;32717;-66
2022/05/07 10:16:23;;;;;;;4.90;2.75;;;;;;;26.12;39.54;100853.75;5588108;31;33348;-67
2022/05/07 10:19:44;;;;;;;3.62;2.20;;;;;;;28.48;35.09;100846.84;5589161;31;34534;-68
2022/05/07 10:22:55;;;;;;;3.25;2.30;;;;;;;27.76;35.11;100844.34;5588897;31;34880;-67
2022/05/07 10:25:58;;;;;;;2.92;2.30;;;;;;;28.82;33.25;100847.09;5589066;31;34277;-67
2022/05/07 10:29:06;;;;;;;4.35;2.72;;;;;;;28.65;33.08;100840.28;5588514;31;33890;-66
2022/05/07 10:32:10;;;;;;;3.60;2.67;;;;;;;27.02;37.97;100841.88;5588218;31;33297;-67
2022/05/07 10:35:14;;;;;;;4.05;2.72;;;;;;;27.78;36.62;100839.44;5586789;31;33524;-66
2022/05/07 10:38:23;;;;;;;3.72;2.40;;;;;;;28.27;36.16;100838.97;5575537;31;32755;-66
2022/05/07 10:41:28;;;;;;;3.78;2.72;;;;;;;27.78;37.43;100849.53;5587814;31;32927;-66
2022/05/07 10:44:34;;;;;;;3.12;2.62;;;;;;;26.99;38.45;100838.88;5588140;31;33005;-68
2022/05/07 10:47:38;;;;;;;3.40;2.45;;;;;;;27.29;37.45;100847.19;5588016;31;32828;-66
2022/05/07 10:50:50;;;;;;;4.65;2.55;;;;;;;30.43;32.62;100839.06;5587697;31;33014;-67
2022/05/07 10:53:56;;;;;;;3.53;2.30;;;;;;;31.55;30.01;100841.34;5575288;31;33278;-67
2022/05/07 10:57:02;;;;;;;;;;;;;;;33.46;27.67;100833.56;5589058;31;34200;-68
2022/05/07 11:00:13;;;;;;;3.45;2.35;;;;;;;31.11;30.49;100833.44;5574722;31;34212;-67
2022/05/07 11:03:24;;;;;;;3.25;2.35;;;;;;;31.98;29.03;100828.38;5588762;31;34909;-67
2022/05/07 11:06:26;;;;;;;3.30;2.55;;;;;;;32.37;27.66;100821.72;5587291;31;34428;-68
2022/05/07 11:09:29;;;;;;;2.72;2.20;;;;;;;31.05;30.29;100818.97;5587788;31;32715;-68
2022/05/07 11:12:32;;;;;;;2.70;2.35;;;;;;;31.35;29.01;100823.25;5587220;31;33816;-67
2022/05/07 11:15:35;;;;;;;4.35;2.40;;;;;;;31.44;29.82;100826.16;5587440;31;33849;-67
2022/05/07 11:18:41;;;;;;;3.87;1.95;;;;;;;28.07;35.47;100816.03;5587006;31;32933;-67
2022/05/07 11:21:50;;;;;;;2.25;2.00;;;;;;;27.31;34.54;100815.03;5588152;31;34940;-67
2022/05/07 11:24:57;;;;;;;;;;;;;;;27.92;33.90;100807.84;5587343;31;33529;-66
2022/05/07 11:28:02;;;;;;;2.22;1.73;;;;;;;27.99;31.36;100810.28;5588098;31;35078;-65
2022/05/07 11:31:05;;;;;;;4.10;1.95;;;;;;;26.50;34.18;100813.78;5587669;31;34200;-65
2022/05/07 11:34:11;;;;;;;4.82;1.92;;;;;;;26.76;34.49;100797.38;5587916;31;34814;-67
2022/05/07 11:37:19;;;;;;;3.20;1.77;;;;;;;27.62;33.08;100791.44;5587162;31;34135;-66
2022/05/07 11:40:29;;;;;;;2.90;1.92;;;;;;;28.78;29.66;100798.75;5587160;31;33678;-65
2022/05/07 11:46:55;;;;;;;4.93;2.20;;;;;;;29.91;29.07;100789.72;5589561;31;34251;-66
2022/05/07 11:50:09;;;;;;;5.07;2.53;;;;;;;29.99;29.31;100798.12;5589624;31;32667;-66
2022/05/07 11:53:14;;;;;;;2.30;1.80;;;;;;;29.49;29.96;100793.81;5589650;31;33383;-68
2022/05/07 11:56:16;;;;;;;2.30;2.00;;;;;;;28.93;30.37;100794.06;5590409;31;34399;-66
2022/05/07 11:59:20;;;;;;;3.35;2.30;;;;;;;30.74;29.56;100789.50;5589416;31;33405;-67
2022/05/07 12:02:23;;;;;;;3.20;2.45;;;;;;;29.52;32.43;100784.22;5590454;31;34221;-66
2022/05/07 12:05:37;;;;;;;3.40;2.60;;;;;;;28.72;32.86;100781.56;5590267;31;35428;-67
2022/05/07 12:08:41;;;;;;;5.55;2.60;;;;;;;29.35;32.33;100776.41;5590244;31;34270;-67
2022/05/07 12:11:44;;;;;;;5.18;2.80;;;;;;;29.72;32.53;100773.97;5589164;31;34112;-67
2022/05/07 12:14:46;;;;;;;4.05;2.75;;;;;;;32.14;29.77;100766.66;5590576;31;34314;-67
2022/05/07 12:17:55;;;;;;;5.45;3.30;;;;;;;30.65;32.40;100765.47;5590094;31;34386;-69
2022/05/07 12:20:58;;;;;;;5.47;2.70;;;;;;;31.65;31.09;100760.88;5590033;31;34685;-67
2022/05/07 12:30:44;;;;;;;2.58;2.08;;;;;;;31.36;30.05;100747.31;5589536;31;33044;-68
2022/05/07 12:33:47;;;;;;;3.03;2.17;;;;;;;33.76;26.56;100754.19;5589337;31;33058;-66
2022/05/07 12:36:50;;;;;;;4.45;2.72;;;;;;;32.90;28.35;100748.69;5589286;31;33383;-67
2022/05/07 12:39:52;;;;;;;3.30;2.60;;;;;;;32.94;27.37;100737.91;5590371;31;34217;-67
2022/05/07 12:42:57;;;;;;;4.75;2.80;;;;;;;30.76;30.52;100741.50;5589323;31;32675;-66
2022/05/07 12:46:01;;;;;;;3.65;2.58;;;;;;;27.89;36.15;100734.72;5589198;31;33457;-66
2022/05/07 12:49:04;;;;;;;4.68;3.20;;;;;;;26.49;39.78;100739.50;5589173;31;32569;-65
2022/05/07 12:52:07;;;;;;;5.97;3.30;;;;;;;24.89;42.70;100727.72;5590009;31;35131;-67
2022/05/07 12:55:11;;;;;;;3.72;2.87;;;;;;;24.45;44.62;100729.56;5588952;31;34233;-65
2022/05/07 12:58:13;;;;;;;7.90;3.10;;;;;;;24.44;44.91;100725.25;5588863;31;34977;-67
2022/05/07 13:01:16;;;;;;;5.62;3.10;;;;;;;25.11;43.94;100716.88;5589856;31;34091;-66
2022/05/07 13:04:22;;;;;;;4.22;3.03;;;;;;;24.79;43.76;100719.44;5589743;31;34869;-66
2022/05/07 13:07:24;;;;;;;4.25;2.90;;;;;;;25.05;44.10;100717.88;5589205;31;33531;-65
2022/05/07 13:10:29;;;;;;;3.37;2.25;;;;;;;25.32;40.09;100713.25;5588795;31;32699;-65
2022/05/07 13:13:32;;;;;;;5.45;2.72;;;;;;;25.07;39.12;100708.41;5589731;31;34343;-64
2022/05/07 13:16:35;;;;;;;3.33;2.40;;;;;;;25.12;39.81;100704.13;5589159;31;32561;-65
2022/05/07 13:19:38;;;;;;;4.68;2.62;;;;;;;25.30;39.15;100707.28;5589498;31;34239;-66
2022/05/07 13:22:40;;;;;;;3.67;2.37;;;;;;;25.04;40.79;100698.06;5589556;31;34832;-67
2022/05/07 13:25:43;;;;;;;3.50;2.50;;;;;;;25.04;39.54;100700.75;5588077;31;33256;-67
2022/05/07 13:28:46;;;;;;;3.67;2.65;;;;;;;25.37;39.23;100693.47;5589122;31;34334;-67
2022/05/07 13:31:48;;;;;;;3.30;2.40;;;;;;;26.13;37.14;100694.94;5589488;31;34884;-67
2022/05/07 13:34:51;;;;;;;5.32;2.60;;;;;;;26.85;35.99;100683.31;5588697;31;32660;-68
2022/05/07 13:37:54;;;;;;;4.25;2.12;;;;;;;29.94;30.52;100693.38;5589427;31;34128;-66
2022/05/07 13:40:57;;;;;;;8.88;2.62;;;;;;;30.15;30.21;100686.62;5589550;31;34676;-67
2022/05/07 13:44:00;;;;;;;4.07;2.25;;;;;;;27.65;33.33;100670.94;5589399;31;34963;-67
2022/05/07 13:47:06;;;;;;;2.95;2.17;;;;;;;27.33;34.84;100675.81;5575696;31;32598;-67
2022/05/07 13:50:10;;;;;;;3.28;2.17;;;;;;;26.73;35.76;100667.22;5588466;31;32684;-66
2022/05/07 13:53:13;;;;;;;6.45;2.37;;;;;;;26.21;36.65;100666.41;5588509;31;34486;-67
2022/05/07 13:56:17;;;;;;;4.28;2.17;;;;;;;25.89;38.71;100661.91;5588412;31;32953;-66
2022/05/07 13:59:22;;;;;;;4.60;1.90;;;;;;;26.68;36.05;100664.47;5589490;31;34876;-67
2022/05/07 14:02:28;;;;;;;2.83;1.80;;;;;;;26.24;34.92;100658.56;5588974;31;34271;-65
2022/05/07 14:05:30;;;;;;;2.90;1.80;;;;;;;25.86;35.24;100667.84;5588525;31;34003;-65
2022/05/07 14:08:33;;;;;;;2.65;2.00;;;;;;;25.50;35.13;100664.03;5589227;31;34248;-66
2022/05/07 14:11:36;;;;;;;3.15;2.42;;;;;;;25.53;35.25;100657.22;5589265;31;34151;-66
2022/05/07 14:14:39;;;;;;;6.30;2.17;;;;;;;26.12;34.07;100646.25;5588169;31;33558;-66
2022/05/07 14:17:42;;;;;;;2.62;1.70;;;;;;;27.53;32.35;100659.53;5588241;31;34784;-66
2022/05/07 14:20:47;;;;;;;2.47;1.80;;;;;;;27.34;32.71;100651.03;5589041;31;34331;-66
2022/05/07 14:23:51;;;;;;;4.68;2.10;;;;;;;26.77;33.16;100651.97;5588768;31;34588;-65
2022/05/07 14:26:53;;;;;;;7.53;2.10;;;;;;;26.25;33.78;100649.34;5587964;31;32658;-65
2022/05/07 14:29:56;;;;;;;2.92;1.73;;;;;;;24.97;32.89;100654.00;5588536;31;35477;-65
2022/05/07 14:32:59;;;;;;;2.95;1.80;;;;;;;25.68;32.28;100643.78;5587979;31;33560;-66
2022/05/07 14:36:03;;;;;;;2.90;1.80;;;;;;;25.96;31.79;100643.44;5587220;31;32569;-66
2022/05/07 14:39:05;;;;;;;2.28;1.50;;;;;;;26.37;32.04;100638.25;5588105;31;32699;-66
2022/05/07 14:42:09;;;;;;;2.30;1.83;;;;;;;25.62;32.21;100644.00;5589191;31;34796;-66
2022/05/07 14:45:12;;;;;;;2.40;1.70;;;;;;;26.12;32.23;100629.94;5588848;31;34596;-66
2022/05/07 14:48:15;;;;;;;3.40;1.83;;;;;;;26.38;32.51;100629.81;5588160;31;34908;-65
2022/05/07 14:51:19;;;;;;;4.60;1.80;;;;;;;26.26;31.01;100625.69;5588031;31;32565;-65
2022/05/07 14:54:22;;;;;;;2.67;1.83;;;;;;;25.55;33.09;100627.94;5588406;31;34574;-66
2022/05/07 14:57:26;;;;;;;2.15;1.80;;;;;;;25.16;33.05;100629.22;5587759;31;32588;-65
2022/05/07 15:00:29;;;;;;;2.12;1.67;;;;;;;24.99;33.15;100637.44;5588197;31;34268;-65
2022/05/07 15:03:33;;;;;;;4.80;1.95;;;;;;;25.33;34.12;100638.03;5588036;31;34252;-66